Time,TemperatureF,DewpointF,PressureIn,WindDirection,WindDirectionDegrees,WindSpeedMPH,WindSpeedGustMPH,Humidity,HourlyPrecipIn,Conditions,Clouds,dailyrainin,SoftwareType,DateUTC
2013-04-30 00:00:00,41.7,33.7,30.17,SSE,158,0.0,0.0,73,0.00,,CLR,0.00,VWS V14.01,2013-04-30 07:00:00,
2013-04-30 00:05:00,41.7,33.7,30.17,SSE,158,0.0,0.0,73,0.00,,CLR,0.00,VWS V14.01,2013-04-30 07:05:00,
2013-04-30 00:10:00,41.5,33.5,30.17,ENE,68,0.0,0.0,73,0.00,,CLR,0.00,VWS V14.01,2013-04-30 07:10:00,
2013-04-30 00:15:00,41.3,33.7,30.18,ENE,68,0.0,0.0,74,0.00,,CLR,0.00,VWS V14.01,2013-04-30 07:15:00,
2013-04-30 00:20:00,41.1,33.5,30.17,ENE,68,0.0,0.0,74,0.00,,CLR,0.00,VWS V14.01,2013-04-30 07:20:00,
2013-04-30 00:25:00,40.8,33.2,30.18,ENE,68,0.0,0.0,74,0.00,,CLR,0.00,VWS V14.01,2013-04-30 07:25:00,
2013-04-30 00:30:00,40.4,32.8,30.17,ENE,68,0.0,0.0,74,0.00,,CLR,0.00,VWS V14.01,2013-04-30 07:30:00,
2013-04-30 00:35:00,40.2,32.6,30.17,ENE,68,0.0,0.0,74,0.00,,CLR,0.00,VWS V14.01,2013-04-30 07:35:00,
2013-04-30 00:41:00,39.9,32.3,30.17,SE,135,0.0,0.0,74,0.00,,CLR,0.00,VWS V14.01,2013-04-30 07:41:00,
2013-04-30 00:46:00,39.9,32.6,30.18,SE,135,0.0,0.0,75,0.00,,CLR,0.00,VWS V14.01,2013-04-30 07:46:00,
2013-04-30 00:51:00,39.9,32.6,30.18,SE,135,0.0,0.0,75,0.00,,CLR,0.00,VWS V14.01,2013-04-30 07:51:00,
2013-04-30 00:56:00,39.9,33.0,30.18,SSE,158,0.0,0.0,76,0.00,,CLR,0.00,VWS V14.01,2013-04-30 07:56:00,
2013-04-30 01:01:00,39.9,33.0,30.18,SSE,158,0.0,0.0,76,0.00,,CLR,0.00,VWS V14.01,2013-04-30 08:01:00,
2013-04-30 01:06:00,40.1,33.2,30.18,SSE,158,0.0,0.0,76,0.00,,CLR,0.00,VWS V14.01,2013-04-30 08:06:00,
2013-04-30 01:11:00,40.1,33.2,30.18,SSE,158,0.0,0.0,76,0.00,,CLR,0.00,VWS V14.01,2013-04-30 08:11:00,
2013-04-30 01:16:00,40.2,33.2,30.18,SSE,158,0.0,0.0,76,0.00,,CLR,0.00,VWS V14.01,2013-04-30 08:16:00,
2013-04-30 01:21:00,40.2,33.2,30.19,SSE,158,0.0,0.0,76,0.00,,CLR,0.00,VWS V14.01,2013-04-30 08:21:00,
2013-04-30 01:26:00,40.2,33.2,30.19,SSE,158,0.0,0.0,76,0.00,,CLR,0.00,VWS V14.01,2013-04-30 08:26:00,
2013-04-30 01:31:00,40.4,33.5,30.19,South,180,0.0,0.0,76,0.00,,CLR,0.00,VWS V14.01,2013-04-30 08:31:00,
2013-04-30 01:36:00,40.6,34.0,30.19,South,180,0.0,0.0,77,0.00,,CLR,0.00,VWS V14.01,2013-04-30 08:36:00,
2013-04-30 01:41:00,40.4,33.8,30.19,SW,225,0.0,0.0,77,0.00,,CLR,0.00,VWS V14.01,2013-04-30 08:41:00,
2013-04-30 01:46:00,40.6,34.0,30.19,SW,225,0.0,0.0,77,0.00,,CLR,0.00,VWS V14.01,2013-04-30 08:46:00,
2013-04-30 01:51:00,40.4,33.8,30.19,SW,225,0.0,0.0,77,0.00,,CLR,0.00,VWS V14.01,2013-04-30 08:51:00,
2013-04-30 01:56:00,40.4,33.8,30.19,SW,225,0.0,0.0,77,0.00,,CLR,0.00,VWS V14.01,2013-04-30 08:56:00,
2013-04-30 02:01:00,40.2,33.6,30.19,SW,225,0.0,0.0,77,0.00,,FEW055,0.00,VWS V14.01,2013-04-30 09:01:00,
2013-04-30 02:06:00,40.1,33.5,30.19,SW,225,0.0,0.0,77,0.00,,FEW055,0.00,VWS V14.01,2013-04-30 09:06:00,
2013-04-30 02:11:00,39.9,33.3,30.19,SW,225,0.0,0.0,77,0.00,,FEW055,0.00,VWS V14.01,2013-04-30 09:11:00,
2013-04-30 02:16:00,39.7,33.1,30.19,SW,225,0.0,0.0,77,0.00,,FEW055,0.00,VWS V14.01,2013-04-30 09:16:00,
2013-04-30 02:21:00,39.5,32.9,30.19,SW,225,0.0,0.0,77,0.00,,FEW055,0.00,VWS V14.01,2013-04-30 09:21:00,
2013-04-30 02:26:00,39.3,32.7,30.20,SW,225,0.0,0.0,77,0.00,,FEW055,0.00,VWS V14.01,2013-04-30 09:26:00,
2013-04-30 02:31:00,39.3,32.7,30.19,SW,225,0.0,0.0,77,0.00,,FEW055,0.00,VWS V14.01,2013-04-30 09:31:00,
2013-04-30 02:36:00,39.2,32.9,30.20,SSW,202,0.0,0.0,78,0.00,,FEW055,0.00,VWS V14.01,2013-04-30 09:36:00,
2013-04-30 02:41:00,39.0,32.7,30.19,SSW,202,0.0,0.0,78,0.00,,FEW055,0.00,VWS V14.01,2013-04-30 09:41:00,
2013-04-30 02:46:00,39.0,32.4,30.19,SSW,202,0.0,0.0,77,0.00,,FEW055,0.00,VWS V14.01,2013-04-30 09:46:00,
2013-04-30 02:51:00,38.6,32.3,30.19,SSW,202,0.0,0.0,78,0.00,,FEW055,0.00,VWS V14.01,2013-04-30 09:51:00,
2013-04-30 02:56:00,38.4,32.2,30.19,SSW,202,0.0,0.0,78,0.00,,FEW055,0.00,VWS V14.01,2013-04-30 09:56:00,
2013-04-30 03:02:00,38.4,32.2,30.19,SSW,202,0.0,0.0,78,0.00,,FEW055,0.00,VWS V14.01,2013-04-30 10:02:00,
2013-04-30 03:07:00,38.3,32.0,30.20,SSW,202,0.0,0.0,78,0.00,,FEW055,0.00,VWS V14.01,2013-04-30 10:07:00,
2013-04-30 03:12:00,37.9,32.0,30.20,SSW,202,0.0,0.0,79,0.00,,FEW055,0.00,VWS V14.01,2013-04-30 10:12:00,
2013-04-30 03:17:00,37.9,32.0,30.20,SSW,202,0.0,0.0,79,0.00,,FEW055,0.00,VWS V14.01,2013-04-30 10:17:00,
2013-04-30 03:22:00,37.5,31.6,30.21,SSW,202,0.0,0.0,79,0.00,,FEW055,0.00,VWS V14.01,2013-04-30 10:22:00,
2013-04-30 03:27:00,37.2,31.3,30.21,SSW,202,0.0,0.0,79,0.00,,FEW055,0.00,VWS V14.01,2013-04-30 10:27:00,
2013-04-30 03:32:00,37.0,31.1,30.21,SSW,202,0.0,0.0,79,0.00,,FEW055,0.00,VWS V14.01,2013-04-30 10:32:00,
2013-04-30 03:37:00,36.6,30.7,30.21,SSW,202,0.0,0.0,79,0.00,,FEW055,0.00,VWS V14.01,2013-04-30 10:37:00,
2013-04-30 03:42:00,36.5,30.6,30.21,SSW,202,0.0,0.0,79,0.00,,FEW055,0.00,VWS V14.01,2013-04-30 10:42:00,
2013-04-30 03:47:00,36.3,30.4,30.21,SSW,202,0.0,0.0,79,0.00,,FEW055,0.00,VWS V14.01,2013-04-30 10:47:00,
2013-04-30 03:52:00,36.1,30.2,30.21,SSW,202,0.0,0.0,79,0.00,,FEW055,0.00,VWS V14.01,2013-04-30 10:52:00,
2013-04-30 03:57:00,35.9,30.3,30.21,SSW,202,0.0,0.0,80,0.00,,FEW055,0.00,VWS V14.01,2013-04-30 10:57:00,
2013-04-30 04:02:00,35.9,30.3,30.21,SSW,202,0.0,0.0,80,0.00,,CLR,0.00,VWS V14.01,2013-04-30 11:02:00,
2013-04-30 04:07:00,35.7,30.5,30.21,SSW,202,0.0,0.0,81,0.00,,CLR,0.00,VWS V14.01,2013-04-30 11:07:00,
2013-04-30 04:12:00,35.4,29.9,30.21,SSW,202,0.0,0.0,80,0.00,,CLR,0.00,VWS V14.01,2013-04-30 11:12:00,
2013-04-30 04:17:00,35.4,29.9,30.21,SSW,202,0.0,0.0,80,0.00,,CLR,0.00,VWS V14.01,2013-04-30 11:17:00,
2013-04-30 04:22:00,35.2,29.7,30.21,SSW,202,0.0,0.0,80,0.00,,CLR,0.00,VWS V14.01,2013-04-30 11:22:00,
2013-04-30 04:27:00,35.2,29.7,30.21,SSW,202,0.0,0.0,80,0.00,,CLR,0.00,VWS V14.01,2013-04-30 11:27:00,
2013-04-30 04:32:00,35.2,30.0,30.21,SSW,202,0.0,0.0,81,0.00,,CLR,0.00,VWS V14.01,2013-04-30 11:32:00,
2013-04-30 04:37:00,35.2,30.0,30.21,SSW,202,0.0,0.0,81,0.00,,CLR,0.00,VWS V14.01,2013-04-30 11:37:00,
2013-04-30 04:42:00,35.0,30.1,30.21,SSW,202,0.0,0.0,82,0.00,,CLR,0.00,VWS V14.01,2013-04-30 11:42:00,
2013-04-30 04:47:00,35.0,30.1,30.21,SSW,202,0.0,0.0,82,0.00,,CLR,0.00,VWS V14.01,2013-04-30 11:47:00,
2013-04-30 04:52:00,34.8,29.9,30.21,SSW,202,0.0,0.0,82,0.00,,CLR,0.00,VWS V14.01,2013-04-30 11:52:00,
2013-04-30 04:57:00,34.8,29.9,30.21,SSW,202,0.0,0.0,82,0.00,,CLR,0.00,VWS V14.01,2013-04-30 11:57:00,
2013-04-30 05:02:00,34.8,29.9,30.21,SSW,202,0.0,0.0,82,0.00,,CLR,0.00,VWS V14.01,2013-04-30 12:02:00,
2013-04-30 05:07:00,34.8,29.9,30.21,SSW,202,0.0,0.0,82,0.00,,CLR,0.00,VWS V14.01,2013-04-30 12:07:00,
2013-04-30 05:12:00,34.7,29.8,30.22,SSW,202,0.0,0.0,82,0.00,,CLR,0.00,VWS V14.01,2013-04-30 12:12:00,
2013-04-30 05:17:00,34.7,29.8,30.21,SSW,202,0.0,0.0,82,0.00,,CLR,0.00,VWS V14.01,2013-04-30 12:17:00,
2013-04-30 05:22:00,34.3,29.4,30.22,SSW,202,0.0,0.0,82,0.00,,CLR,0.00,VWS V14.01,2013-04-30 12:22:00,
2013-04-30 05:28:00,34.3,29.4,30.21,SSW,202,0.0,0.0,82,0.00,,CLR,0.00,VWS V14.01,2013-04-30 12:28:00,
2013-04-30 05:33:00,34.3,29.4,30.22,SSW,202,0.0,0.0,82,0.00,,CLR,0.00,VWS V14.01,2013-04-30 12:33:00,
2013-04-30 05:38:00,34.1,29.2,30.22,SSW,202,0.0,0.0,82,0.00,,CLR,0.00,VWS V14.01,2013-04-30 12:38:00,
2013-04-30 05:43:00,33.9,29.0,30.22,SSW,202,0.0,0.0,82,0.00,,CLR,0.00,VWS V14.01,2013-04-30 12:43:00,
2013-04-30 05:48:00,33.9,29.0,30.23,SSW,202,0.0,0.0,82,0.00,,CLR,0.00,VWS V14.01,2013-04-30 12:48:00,
2013-04-30 05:53:00,33.8,28.9,30.23,SSW,202,0.0,0.0,82,0.00,,CLR,0.00,VWS V14.01,2013-04-30 12:53:00,
2013-04-30 05:58:00,33.9,29.0,30.23,SSW,202,0.0,0.0,82,0.00,,CLR,0.00,VWS V14.01,2013-04-30 12:58:00,
2013-04-30 06:03:00,34.1,29.5,30.23,SSW,202,0.0,0.0,83,0.00,,CLR,0.00,VWS V14.01,2013-04-30 13:03:00,
2013-04-30 06:08:00,34.3,29.7,30.23,SSW,202,0.0,0.0,83,0.00,,CLR,0.00,VWS V14.01,2013-04-30 13:08:00,
2013-04-30 06:13:00,34.3,29.7,30.24,SSW,202,0.0,0.0,83,0.00,,CLR,0.00,VWS V14.01,2013-04-30 13:13:00,
2013-04-30 06:18:00,34.1,29.5,30.23,SSW,202,0.0,0.0,83,0.00,,CLR,0.00,VWS V14.01,2013-04-30 13:18:00,
2013-04-30 06:23:00,34.1,29.5,30.24,SSW,202,0.0,0.0,83,0.00,,CLR,0.00,VWS V14.01,2013-04-30 13:23:00,
2013-04-30 06:28:00,33.9,29.3,30.24,SSW,202,0.0,0.0,83,0.00,,CLR,0.00,VWS V14.01,2013-04-30 13:28:00,
2013-04-30 06:33:00,33.9,29.3,30.24,SSW,202,0.0,0.0,83,0.00,,CLR,0.00,VWS V14.01,2013-04-30 13:33:00,
2013-04-30 06:38:00,33.9,29.3,30.24,SSW,202,0.0,0.0,83,0.00,,CLR,0.00,VWS V14.01,2013-04-30 13:38:00,
2013-04-30 06:43:00,34.1,29.5,30.24,SSW,202,0.0,0.0,83,0.00,,CLR,0.00,VWS V14.01,2013-04-30 13:43:00,
2013-04-30 06:48:00,34.1,29.8,30.24,SSW,202,0.0,0.0,84,0.00,,CLR,0.00,VWS V14.01,2013-04-30 13:48:00,
2013-04-30 06:53:00,34.1,29.8,30.25,SSW,202,0.0,0.0,84,0.00,,CLR,0.00,VWS V14.01,2013-04-30 13:53:00,
2013-04-30 06:58:00,34.3,30.0,30.25,SSW,202,0.0,0.0,84,0.00,,CLR,0.00,VWS V14.01,2013-04-30 13:58:00,
2013-04-30 07:03:00,34.3,30.0,30.25,SSW,202,0.0,0.0,84,0.00,,CLR,0.00,VWS V14.01,2013-04-30 14:03:00,
2013-04-30 07:08:00,34.5,30.2,30.26,SSW,202,0.0,0.0,84,0.00,,CLR,0.00,VWS V14.01,2013-04-30 14:08:00,
2013-04-30 07:13:00,34.8,30.5,30.26,SSW,202,0.0,0.0,84,0.00,,CLR,0.00,VWS V14.01,2013-04-30 14:13:00,
2013-04-30 07:18:00,35.0,30.7,30.26,SSW,202,0.0,0.0,84,0.00,,CLR,0.00,VWS V14.01,2013-04-30 14:18:00,
2013-04-30 07:23:00,35.4,31.1,30.26,SSW,202,0.0,0.0,84,0.00,,CLR,0.00,VWS V14.01,2013-04-30 14:23:00,
2013-04-30 07:28:00,35.7,31.4,30.27,SSW,202,0.0,0.0,84,0.00,,CLR,0.00,VWS V14.01,2013-04-30 14:28:00,
2013-04-30 07:34:00,36.3,31.9,30.27,SSW,202,0.0,0.0,84,0.00,,CLR,0.00,VWS V14.01,2013-04-30 14:34:00,
2013-04-30 07:39:00,36.6,32.2,30.28,SSW,202,0.0,0.0,84,0.00,,CLR,0.00,VWS V14.01,2013-04-30 14:39:00,
2013-04-30 07:44:00,37.0,32.6,30.27,SSW,202,0.0,0.0,84,0.00,,CLR,0.00,VWS V14.01,2013-04-30 14:44:00,
2013-04-30 07:49:00,37.5,33.1,30.28,SSW,202,0.0,0.0,84,0.00,,CLR,0.00,VWS V14.01,2013-04-30 14:49:00,
2013-04-30 07:54:00,38.1,33.7,30.27,ENE,68,0.0,0.0,84,0.00,,CLR,0.00,VWS V14.01,2013-04-30 14:54:00,
2013-04-30 07:59:00,38.8,34.7,30.27,East,90,0.0,0.0,85,0.00,,CLR,0.00,VWS V14.01,2013-04-30 14:59:00,
2013-04-30 08:04:00,39.3,35.2,30.27,SSE,158,0.0,0.0,85,0.00,,FEW060,0.00,VWS V14.01,2013-04-30 15:04:00,
2013-04-30 08:09:00,39.9,35.5,30.28,SE,135,0.0,0.0,84,0.00,,FEW060,0.00,VWS V14.01,2013-04-30 15:09:00,
2013-04-30 08:14:00,40.2,35.8,30.28,SE,135,0.0,0.0,84,0.00,,FEW060,0.00,VWS V14.01,2013-04-30 15:14:00,
2013-04-30 08:19:00,40.6,36.2,30.27,SE,135,0.0,0.0,84,0.00,,FEW060,0.00,VWS V14.01,2013-04-30 15:19:00,
2013-04-30 08:24:00,41.3,36.5,30.28,SE,135,0.0,0.0,83,0.00,,FEW060,0.00,VWS V14.01,2013-04-30 15:24:00,
2013-04-30 08:29:00,42.0,36.9,30.28,ESE,112,0.0,0.0,82,0.00,,FEW060,0.00,VWS V14.01,2013-04-30 15:29:00,
2013-04-30 08:34:00,42.4,37.0,30.28,SE,135,0.0,0.0,81,0.00,,FEW060,0.00,VWS V14.01,2013-04-30 15:34:00,
2013-04-30 08:39:00,42.6,37.2,30.28,ESE,112,0.0,0.0,81,0.00,,FEW060,0.00,VWS V14.01,2013-04-30 15:39:00,
2013-04-30 08:44:00,43.1,37.4,30.29,NE,45,0.0,0.0,80,0.00,,FEW060,0.00,VWS V14.01,2013-04-30 15:44:00,
2013-04-30 08:49:00,43.7,38.0,30.29,NE,45,0.0,0.0,80,0.00,,FEW060,0.00,VWS V14.01,2013-04-30 15:49:00,
2013-04-30 08:54:00,44.2,38.1,30.29,WSW,248,0.0,0.0,79,0.00,,FEW060,0.00,VWS V14.01,2013-04-30 15:54:00,
2013-04-30 08:59:00,45.1,38.0,30.29,NE,45,0.0,0.0,76,0.00,,FEW060,0.00,VWS V14.01,2013-04-30 15:59:00,
2013-04-30 09:04:00,45.3,38.2,30.29,NE,45,0.0,0.0,76,0.00,,FEW060,0.00,VWS V14.01,2013-04-30 16:04:00,
2013-04-30 09:09:00,45.5,38.0,30.29,West,270,0.0,0.0,75,0.00,,FEW060,0.00,VWS V14.01,2013-04-30 16:09:00,
2013-04-30 09:14:00,45.6,38.2,30.29,West,270,0.0,0.0,75,0.00,,FEW060,0.00,VWS V14.01,2013-04-30 16:14:00,
2013-04-30 09:19:00,45.5,37.4,30.29,NW,315,0.0,0.0,73,0.00,,FEW060,0.00,VWS V14.01,2013-04-30 16:19:00,
2013-04-30 09:24:00,45.6,37.8,30.29,North,0,0.0,0.0,74,0.00,,FEW060,0.00,VWS V14.01,2013-04-30 16:24:00,
2013-04-30 09:29:00,46.2,37.7,30.30,SE,135,0.0,0.0,72,0.00,,FEW060,0.00,VWS V14.01,2013-04-30 16:29:00,
2013-04-30 09:34:00,46.5,38.0,30.30,ENE,68,0.0,0.0,72,0.00,,FEW060,0.00,VWS V14.01,2013-04-30 16:34:00,
2013-04-30 09:39:00,47.1,38.2,30.30,NNE,22,0.0,0.0,71,0.00,,FEW060,0.00,VWS V14.01,2013-04-30 16:39:00,
2013-04-30 09:45:00,47.8,38.5,30.30,SSW,202,0.0,0.0,70,0.00,,FEW060,0.00,VWS V14.01,2013-04-30 16:45:00,
2013-04-30 09:50:00,48.0,38.7,30.30,SE,135,0.0,0.0,70,0.00,,FEW060,0.00,VWS V14.01,2013-04-30 16:50:00,
2013-04-30 09:55:00,48.7,39.0,30.30,SE,135,0.0,0.0,69,0.00,,FEW060,0.00,VWS V14.01,2013-04-30 16:55:00,
2013-04-30 10:00:00,49.6,39.5,30.30,ESE,112,0.0,4.4,68,0.00,,FEW060,0.00,VWS V14.01,2013-04-30 17:00:00,
2013-04-30 10:05:00,50.0,39.1,30.30,SSE,158,0.0,0.0,66,0.00,,BKN036,0.00,VWS V14.01,2013-04-30 17:05:00,
2013-04-30 10:10:00,50.3,39.4,30.31,SSW,202,0.0,0.0,66,0.00,,BKN036,0.00,VWS V14.01,2013-04-30 17:10:00,
2013-04-30 10:15:00,50.1,38.8,30.31,SE,135,0.0,0.0,65,0.00,,BKN036,0.00,VWS V14.01,2013-04-30 17:15:00,
2013-04-30 10:20:00,50.3,38.2,30.31,South,180,0.0,0.0,63,0.00,,BKN036,0.00,VWS V14.01,2013-04-30 17:20:00,
2013-04-30 10:25:00,50.7,38.6,30.31,SE,135,0.0,0.0,63,0.00,,BKN036,0.00,VWS V14.01,2013-04-30 17:25:00,
2013-04-30 10:30:00,51.0,38.0,30.31,ESE,112,0.0,0.0,61,0.00,,BKN036,0.00,VWS V14.01,2013-04-30 17:30:00,
2013-04-30 10:35:00,50.5,37.6,30.31,ESE,112,0.0,0.0,61,0.00,,BKN036,0.00,VWS V14.01,2013-04-30 17:35:00,
2013-04-30 10:40:00,49.4,36.5,30.31,East,90,0.0,0.0,61,0.00,,BKN036,0.00,VWS V14.01,2013-04-30 17:40:00,
2013-04-30 10:45:00,48.9,36.5,30.31,ENE,68,0.0,0.0,62,0.00,,BKN036,0.00,VWS V14.01,2013-04-30 17:45:00,
2013-04-30 10:50:00,48.9,36.5,30.31,ENE,68,0.0,0.0,62,0.00,,BKN036,0.00,VWS V14.01,2013-04-30 17:50:00,
2013-04-30 10:55:00,50.0,37.5,30.31,SE,135,0.0,0.0,62,0.00,,BKN036,0.00,VWS V14.01,2013-04-30 17:55:00,
2013-04-30 11:00:00,50.9,38.0,30.31,ESE,112,0.0,0.0,61,0.00,,BKN036,0.00,VWS V14.01,2013-04-30 18:00:00,
2013-04-30 11:05:00,51.4,38.0,30.32,SSE,158,0.0,0.0,60,0.00,,BKN036,0.00,VWS V14.01,2013-04-30 18:05:00,
2013-04-30 11:10:00,50.7,36.9,30.32,SE,135,0.0,0.0,59,0.00,,BKN036,0.00,VWS V14.01,2013-04-30 18:10:00,
2013-04-30 11:15:00,50.3,36.5,30.32,SE,135,0.0,0.0,59,0.00,,BKN036,0.00,VWS V14.01,2013-04-30 18:15:00,
2013-04-30 11:20:00,50.0,36.2,30.32,NNE,22,0.0,0.0,59,0.00,,BKN036,0.00,VWS V14.01,2013-04-30 18:20:00,
2013-04-30 11:25:00,49.2,35.9,30.33,ESE,112,0.0,0.0,60,0.00,,BKN036,0.00,VWS V14.01,2013-04-30 18:25:00,
2013-04-30 11:30:00,49.1,36.2,30.33,ESE,112,0.0,0.0,61,0.00,,BKN036,0.00,VWS V14.01,2013-04-30 18:30:00,
2013-04-30 11:35:00,48.7,35.9,30.33,ESE,112,0.0,0.0,61,0.00,,BKN036,0.00,VWS V14.01,2013-04-30 18:35:00,
2013-04-30 11:40:00,48.9,36.5,30.33,SE,135,0.0,0.0,62,0.00,,BKN036,0.00,VWS V14.01,2013-04-30 18:40:00,
2013-04-30 11:46:00,49.6,37.1,30.33,SE,135,0.0,0.0,62,0.00,,BKN036,0.00,VWS V14.01,2013-04-30 18:46:00,
2013-04-30 11:51:00,50.5,38.0,30.33,SE,135,0.0,0.0,62,0.00,,BKN036,0.00,VWS V14.01,2013-04-30 18:51:00,
2013-04-30 11:56:00,51.8,38.4,30.33,SE,135,0.0,0.0,60,0.00,,BKN036,0.00,VWS V14.01,2013-04-30 18:56:00,
2013-04-30 12:01:00,52.5,38.6,30.33,SSE,158,0.0,0.0,59,0.00,,BKN075,0.00,VWS V14.01,2013-04-30 19:01:00,
2013-04-30 12:06:00,53.2,39.3,30.33,SE,135,0.0,0.0,59,0.00,,BKN075,0.00,VWS V14.01,2013-04-30 19:06:00,
2013-04-30 12:11:00,53.4,38.6,30.34,South,180,0.0,0.0,57,0.00,,BKN075,0.00,VWS V14.01,2013-04-30 19:11:00,
2013-04-30 12:16:00,53.4,38.1,30.34,ESE,112,0.0,0.0,56,0.00,,BKN075,0.00,VWS V14.01,2013-04-30 19:16:00,
2013-04-30 12:21:00,53.0,37.3,30.34,SSE,158,0.0,0.0,55,0.00,,BKN075,0.00,VWS V14.01,2013-04-30 19:21:00,
2013-04-30 12:26:00,51.9,37.2,30.34,East,90,0.0,0.0,57,0.00,,BKN075,0.00,VWS V14.01,2013-04-30 19:26:00,
2013-04-30 12:31:00,50.9,36.7,30.34,SSW,202,0.0,0.0,58,0.00,,BKN075,0.00,VWS V14.01,2013-04-30 19:31:00,
2013-04-30 12:36:00,50.1,35.9,30.34,ENE,68,0.0,0.0,58,0.00,,BKN075,0.00,VWS V14.01,2013-04-30 19:36:00,
2013-04-30 12:41:00,49.8,36.1,30.34,SSE,158,0.0,0.0,59,0.00,,BKN075,0.00,VWS V14.01,2013-04-30 19:41:00,
2013-04-30 12:46:00,49.8,36.5,30.34,SE,135,0.0,0.0,60,0.00,,BKN075,0.00,VWS V14.01,2013-04-30 19:46:00,
2013-04-30 12:51:00,50.7,37.3,30.34,ENE,68,0.0,0.0,60,0.00,,BKN075,0.00,VWS V14.01,2013-04-30 19:51:00,
2013-04-30 12:56:00,51.0,37.2,30.34,South,180,0.0,0.0,59,0.00,,BKN075,0.00,VWS V14.01,2013-04-30 19:56:00,
2013-04-30 13:01:00,51.6,37.8,30.34,SE,135,0.0,0.0,59,0.00,,BKN075,0.00,VWS V14.01,2013-04-30 20:01:00,
2013-04-30 13:06:00,52.3,38.4,30.34,SE,135,0.0,0.0,59,0.00,,BKN075,0.00,VWS V14.01,2013-04-30 20:06:00,
2013-04-30 13:11:00,53.4,39.0,30.34,ESE,112,0.0,0.0,58,0.00,,BKN075,0.00,VWS V14.01,2013-04-30 20:11:00,
2013-04-30 13:16:00,54.3,39.4,30.34,SE,135,0.0,0.0,57,0.00,,BKN075,0.00,VWS V14.01,2013-04-30 20:16:00,
2013-04-30 13:21:00,54.1,38.8,30.34,South,180,0.0,0.0,56,0.00,,BKN075,0.00,VWS V14.01,2013-04-30 20:21:00,
2013-04-30 13:26:00,53.7,37.9,30.35,ESE,112,0.0,0.0,55,0.00,,BKN075,0.00,VWS V14.01,2013-04-30 20:26:00,
2013-04-30 13:31:00,53.0,37.7,30.35,SE,135,0.0,0.0,56,0.00,,BKN075,0.00,VWS V14.01,2013-04-30 20:31:00,
2013-04-30 13:36:00,52.8,37.5,30.35,SE,135,0.0,0.0,56,0.00,,BKN075,0.00,VWS V14.01,2013-04-30 20:36:00,
2013-04-30 13:42:00,52.7,37.5,30.35,SE,135,0.0,0.0,56,0.00,,BKN075,0.00,VWS V14.01,2013-04-30 20:42:00,
2013-04-30 13:47:00,52.8,38.0,30.35,NE,45,0.0,0.0,57,0.00,,BKN075,0.00,VWS V14.01,2013-04-30 20:47:00,
2013-04-30 13:52:00,52.8,38.0,30.35,NNE,22,0.0,0.0,57,0.00,,BKN075,0.00,VWS V14.01,2013-04-30 20:52:00,
2013-04-30 13:57:00,52.5,38.2,30.35,NNE,22,0.0,0.0,58,0.00,,BKN075,0.00,VWS V14.01,2013-04-30 20:57:00,
2013-04-30 14:02:00,52.1,37.8,30.35,SSE,158,0.0,0.0,58,0.00,,BKN041,0.00,VWS V14.01,2013-04-30 21:02:00,
2013-04-30 14:07:00,51.9,38.0,30.36,East,90,0.0,0.0,59,0.00,,BKN041,0.00,VWS V14.01,2013-04-30 21:07:00,
2013-04-30 14:12:00,51.6,37.3,30.35,SE,135,0.0,0.0,58,0.00,,BKN041,0.00,VWS V14.01,2013-04-30 21:12:00,
2013-04-30 14:17:00,51.2,36.5,30.36,South,180,0.0,0.0,57,0.00,,BKN041,0.00,VWS V14.01,2013-04-30 21:17:00,
2013-04-30 14:22:00,50.7,36.0,30.36,SE,135,0.0,0.0,57,0.00,,BKN041,0.00,VWS V14.01,2013-04-30 21:22:00,
2013-04-30 14:27:00,50.5,36.3,30.36,ESE,112,0.0,0.0,58,0.00,,BKN041,0.00,VWS V14.01,2013-04-30 21:27:00,
2013-04-30 14:32:00,50.1,35.5,30.36,ENE,68,0.0,0.0,57,0.00,,BKN041,0.00,VWS V14.01,2013-04-30 21:32:00,
2013-04-30 14:37:00,49.8,36.1,30.37,SSE,158,0.0,0.0,59,0.00,,BKN041,0.00,VWS V14.01,2013-04-30 21:37:00,
2013-04-30 14:42:00,49.8,36.1,30.37,SSE,158,0.0,0.0,59,0.00,,BKN041,0.00,VWS V14.01,2013-04-30 21:42:00,
2013-04-30 14:47:00,49.8,36.1,30.37,ESE,112,0.0,0.0,59,0.00,,BKN041,0.00,VWS V14.01,2013-04-30 21:47:00,
2013-04-30 14:52:00,50.1,36.8,30.37,SSE,158,0.0,0.0,60,0.00,,BKN041,0.00,VWS V14.01,2013-04-30 21:52:00,
2013-04-30 14:57:00,51.0,36.8,30.37,SE,135,0.0,0.0,58,0.00,,BKN041,0.00,VWS V14.01,2013-04-30 21:57:00,
2013-04-30 15:02:00,51.4,37.1,30.37,SE,135,0.0,0.0,58,0.00,,BKN041,0.00,VWS V14.01,2013-04-30 22:02:00,
2013-04-30 15:07:00,51.8,36.6,30.37,SE,135,0.0,0.0,56,0.00,,BKN041,0.00,VWS V14.01,2013-04-30 22:07:00,
2013-04-30 15:12:00,51.9,37.2,30.37,NNW,338,0.0,0.0,57,0.00,,BKN041,0.00,VWS V14.01,2013-04-30 22:12:00,
2013-04-30 15:17:00,52.3,37.5,30.37,SSE,158,0.0,0.0,57,0.00,,BKN041,0.00,VWS V14.01,2013-04-30 22:17:00,
2013-04-30 15:22:00,52.5,37.3,30.37,SE,135,0.0,0.0,56,0.00,,BKN041,0.00,VWS V14.01,2013-04-30 22:22:00,
2013-04-30 15:27:00,53.2,37.9,30.37,NE,45,0.0,0.0,56,0.00,,BKN041,0.00,VWS V14.01,2013-04-30 22:27:00,
2013-04-30 15:32:00,53.4,37.7,30.37,SE,135,0.0,0.0,55,0.00,,BKN041,0.00,VWS V14.01,2013-04-30 22:32:00,
2013-04-30 15:37:00,53.2,37.9,30.37,SE,135,0.0,0.0,56,0.00,,BKN041,0.00,VWS V14.01,2013-04-30 22:37:00,
2013-04-30 15:42:00,52.8,37.5,30.37,NE,45,0.0,0.0,56,0.00,,BKN041,0.00,VWS V14.01,2013-04-30 22:42:00,
2013-04-30 15:47:00,52.8,37.5,30.37,NE,45,0.0,0.0,56,0.00,,BKN041,0.00,VWS V14.01,2013-04-30 22:47:00,
2013-04-30 15:53:00,52.7,37.5,30.38,NE,45,0.0,0.0,56,0.00,,BKN041,0.00,VWS V14.01,2013-04-30 22:53:00,
2013-04-30 15:58:00,52.3,37.5,30.37,NE,45,0.0,0.0,57,0.00,,BKN041,0.00,VWS V14.01,2013-04-30 22:58:00,
2013-04-30 16:03:00,52.1,37.3,30.37,NNW,338,0.0,0.0,57,0.00,,OVC075,0.00,VWS V14.01,2013-04-30 23:03:00,
2013-04-30 16:08:00,52.1,37.3,30.37,NNW,338,0.0,0.0,57,0.00,,OVC075,0.00,VWS V14.01,2013-04-30 23:08:00,
2013-04-30 16:13:00,51.8,37.1,30.37,SE,135,0.0,0.0,57,0.00,,OVC075,0.00,VWS V14.01,2013-04-30 23:13:00,
2013-04-30 16:18:00,51.6,36.9,30.38,North,0,0.0,0.0,57,0.00,,OVC075,0.00,VWS V14.01,2013-04-30 23:18:00,
2013-04-30 16:23:00,51.6,36.9,30.38,East,90,0.0,0.0,57,0.00,,OVC075,0.00,VWS V14.01,2013-04-30 23:23:00,
2013-04-30 16:28:00,51.6,36.9,30.38,ESE,112,0.0,0.0,57,0.00,,OVC075,0.00,VWS V14.01,2013-04-30 23:28:00,
2013-04-30 16:33:00,51.9,37.2,30.38,SE,135,0.0,0.0,57,0.00,,OVC075,0.00,VWS V14.01,2013-04-30 23:33:00,
2013-04-30 16:38:00,51.8,36.6,30.38,SE,135,0.0,0.0,56,0.00,,OVC075,0.00,VWS V14.01,2013-04-30 23:38:00,
2013-04-30 16:43:00,51.8,36.6,30.38,SSE,158,0.0,0.0,56,0.00,,OVC075,0.00,VWS V14.01,2013-04-30 23:43:00,
2013-04-30 16:48:00,51.8,36.6,30.38,ESE,112,0.0,0.0,56,0.00,,OVC075,0.00,VWS V14.01,2013-04-30 23:48:00,
2013-04-30 16:53:00,51.8,36.6,30.38,ESE,112,0.0,0.0,56,0.00,,OVC075,0.00,VWS V14.01,2013-04-30 23:53:00,
2013-04-30 16:58:00,51.8,36.6,30.38,SE,135,0.0,0.0,56,0.00,,OVC075,0.00,VWS V14.01,2013-04-30 23:58:00,
2013-04-30 17:03:00,51.8,36.6,30.37,NE,45,0.0,0.0,56,0.00,,OVC075,0.00,VWS V14.01,2013-05-01 00:03:00,
2013-04-30 17:08:00,51.8,37.1,30.37,NNE,22,0.0,0.0,57,0.00,,OVC075,0.00,VWS V14.01,2013-05-01 00:08:00,
2013-04-30 17:14:00,51.9,37.2,30.38,NNE,22,0.0,0.0,57,0.00,,OVC075,0.00,VWS V14.01,2013-05-01 00:14:00,
2013-04-30 17:19:00,52.1,37.3,30.38,NE,45,0.0,0.0,57,0.00,,OVC075,0.00,VWS V14.01,2013-05-01 00:19:00,
2013-04-30 17:24:00,52.1,37.3,30.38,NNE,22,0.0,0.0,57,0.00,,OVC075,0.00,VWS V14.01,2013-05-01 00:24:00,
2013-04-30 17:29:00,52.1,37.8,30.38,NE,45,0.0,0.0,58,0.00,,OVC075,0.00,VWS V14.01,2013-05-01 00:29:00,
2013-04-30 17:34:00,51.8,37.1,30.38,NE,45,0.0,0.0,57,0.00,,OVC075,0.00,VWS V14.01,2013-05-01 00:34:00,
2013-04-30 17:39:00,51.6,36.9,30.38,NNE,22,0.0,0.0,57,0.00,,OVC075,0.00,VWS V14.01,2013-05-01 00:39:00,
2013-04-30 17:44:00,51.6,36.9,30.39,West,270,0.0,0.0,57,0.00,,OVC075,0.00,VWS V14.01,2013-05-01 00:44:00,
2013-04-30 17:49:00,51.4,36.7,30.39,ENE,68,0.0,0.0,57,0.00,,OVC075,0.00,VWS V14.01,2013-05-01 00:49:00,
2013-04-30 17:54:00,51.4,36.7,30.38,NE,45,0.0,0.0,57,0.00,,OVC075,0.00,VWS V14.01,2013-05-01 00:54:00,
2013-04-30 17:59:00,51.2,36.5,30.38,NE,45,0.0,0.0,57,0.00,,OVC075,0.00,VWS V14.01,2013-05-01 00:59:00,
2013-04-30 18:04:00,50.9,36.7,30.39,NE,45,0.0,0.0,58,0.00,,SCT065,0.00,VWS V14.01,2013-05-01 01:04:00,
2013-04-30 18:09:00,50.7,36.5,30.39,NNW,338,0.0,0.0,58,0.00,,SCT065,0.00,VWS V14.01,2013-05-01 01:09:00,
2013-04-30 18:14:00,50.3,36.1,30.39,SSE,158,0.0,0.0,58,0.00,,SCT065,0.00,VWS V14.01,2013-05-01 01:14:00,
2013-04-30 18:19:00,50.1,36.3,30.39,SSE,158,0.0,0.0,59,0.00,,SCT065,0.00,VWS V14.01,2013-05-01 01:19:00,
2013-04-30 18:24:00,50.0,36.2,30.39,ESE,112,0.0,0.0,59,0.00,,SCT065,0.00,VWS V14.01,2013-05-01 01:24:00,
2013-04-30 18:29:00,49.8,36.5,30.39,ESE,112,0.0,0.0,60,0.00,,SCT065,0.00,VWS V14.01,2013-05-01 01:29:00,
2013-04-30 18:34:00,49.6,36.3,30.39,ESE,112,0.0,0.0,60,0.00,,SCT065,0.00,VWS V14.01,2013-05-01 01:34:00,
2013-04-30 18:39:00,49.6,36.3,30.39,ESE,112,0.0,0.0,60,0.00,,SCT065,0.00,VWS V14.01,2013-05-01 01:39:00,
2013-04-30 18:44:00,49.2,35.9,30.39,NE,45,0.0,0.0,60,0.00,,SCT065,0.00,VWS V14.01,2013-05-01 01:44:00,
2013-04-30 18:49:00,49.2,35.9,30.40,NNE,22,0.0,0.0,60,0.00,,SCT065,0.00,VWS V14.01,2013-05-01 01:49:00,
2013-04-30 18:54:00,49.1,35.8,30.40,NNE,22,0.0,0.0,60,0.00,,SCT065,0.00,VWS V14.01,2013-05-01 01:54:00,
2013-04-30 18:59:00,48.9,35.6,30.39,ENE,68,0.0,0.0,60,0.00,,SCT065,0.00,VWS V14.01,2013-05-01 01:59:00,
2013-04-30 19:04:00,48.7,35.9,30.39,NE,45,0.0,0.0,61,0.00,,SCT065,0.00,VWS V14.01,2013-05-01 02:04:00,
2013-04-30 19:09:00,48.5,35.7,30.39,NE,45,0.0,0.0,61,0.00,,SCT065,0.00,VWS V14.01,2013-05-01 02:09:00,
2013-04-30 19:14:00,48.5,35.7,30.40,NE,45,0.0,0.0,61,0.00,,SCT065,0.00,VWS V14.01,2013-05-01 02:14:00,
2013-04-30 19:19:00,48.5,35.7,30.40,NE,45,0.0,0.0,61,0.00,,SCT065,0.00,VWS V14.01,2013-05-01 02:19:00,
2013-04-30 19:24:00,48.5,36.1,30.40,NE,45,0.0,0.0,62,0.00,,SCT065,0.00,VWS V14.01,2013-05-01 02:24:00,
2013-04-30 19:29:00,48.3,36.3,30.40,NE,45,0.0,0.0,63,0.00,,SCT065,0.00,VWS V14.01,2013-05-01 02:29:00,
2013-04-30 19:35:00,48.3,36.3,30.40,NE,45,0.0,0.0,63,0.00,,SCT065,0.00,VWS V14.01,2013-05-01 02:35:00,
2013-04-30 19:40:00,48.2,36.2,30.41,NE,45,0.0,0.0,63,0.00,,SCT065,0.00,VWS V14.01,2013-05-01 02:40:00,
2013-04-30 19:45:00,48.0,36.0,30.40,NE,45,0.0,0.0,63,0.00,,SCT065,0.00,VWS V14.01,2013-05-01 02:45:00,
2013-04-30 19:50:00,48.0,36.0,30.40,NE,45,0.0,0.0,63,0.00,,SCT065,0.00,VWS V14.01,2013-05-01 02:50:00,
2013-04-30 19:55:00,47.8,35.8,30.41,NE,45,0.0,0.0,63,0.00,,SCT065,0.00,VWS V14.01,2013-05-01 02:55:00,
2013-04-30 20:00:00,47.6,35.6,30.41,NE,45,0.0,0.0,63,0.00,,SCT065,0.00,VWS V14.01,2013-05-01 03:00:00,
2013-04-30 20:05:00,47.4,35.5,30.40,NE,45,0.0,0.0,63,0.00,,CLR,0.00,VWS V14.01,2013-05-01 03:05:00,
2013-04-30 20:10:00,47.3,35.8,30.40,NE,45,0.0,0.0,64,0.00,,CLR,0.00,VWS V14.01,2013-05-01 03:10:00,
2013-04-30 20:15:00,47.3,35.8,30.40,NE,45,0.0,0.0,64,0.00,,CLR,0.00,VWS V14.01,2013-05-01 03:15:00,
2013-04-30 20:20:00,47.1,35.6,30.40,NE,45,0.0,0.0,64,0.00,,CLR,0.00,VWS V14.01,2013-05-01 03:20:00,
2013-04-30 20:25:00,46.7,35.6,30.41,NE,45,0.0,0.0,65,0.00,,CLR,0.00,VWS V14.01,2013-05-01 03:25:00,
2013-04-30 20:30:00,46.5,35.4,30.41,NE,45,0.0,0.0,65,0.00,,CLR,0.00,VWS V14.01,2013-05-01 03:30:00,
2013-04-30 20:35:00,46.2,35.1,30.41,NE,45,0.0,0.0,65,0.00,,CLR,0.00,VWS V14.01,2013-05-01 03:35:00,
2013-04-30 20:40:00,46.0,34.9,30.41,NE,45,0.0,0.0,65,0.00,,CLR,0.00,VWS V14.01,2013-05-01 03:40:00,
2013-04-30 20:45:00,45.6,34.9,30.41,NE,45,0.0,0.0,66,0.00,,CLR,0.00,VWS V14.01,2013-05-01 03:45:00,
2013-04-30 20:50:00,45.5,34.8,30.42,NE,45,0.0,0.0,66,0.00,,CLR,0.00,VWS V14.01,2013-05-01 03:50:00,
2013-04-30 20:55:00,45.3,35.0,30.42,NE,45,0.0,0.0,67,0.00,,CLR,0.00,VWS V14.01,2013-05-01 03:55:00,
2013-04-30 21:00:00,45.1,34.8,30.42,NE,45,0.0,0.0,67,0.00,,CLR,0.00,VWS V14.01,2013-05-01 04:00:00,
2013-04-30 21:01:00,45.1,34.8,30.42,NE,45,0.0,0.0,67,0.00,,CLR,0.00,VWS V14.01,2013-05-01 04:01:00,
2013-04-30 21:02:00,44.9,34.6,30.42,NE,45,0.0,0.0,67,0.00,,CLR,0.00,VWS V14.01,2013-05-01 04:02:00,
2013-04-30 21:04:00,44.9,35.0,30.42,NE,45,0.0,0.0,68,0.00,,CLR,0.00,VWS V14.01,2013-05-01 04:04:00,
2013-04-30 21:09:00,44.9,35.0,30.42,NE,45,0.0,0.0,68,0.00,,CLR,0.00,VWS V14.01,2013-05-01 04:09:00,
2013-04-30 21:14:00,44.7,34.8,30.42,NE,45,0.0,0.0,68,0.00,,CLR,0.00,VWS V14.01,2013-05-01 04:14:00,
2013-04-30 21:19:00,44.7,34.8,30.42,NE,45,0.0,0.0,68,0.00,,CLR,0.00,VWS V14.01,2013-05-01 04:19:00,
2013-04-30 21:24:00,44.7,35.2,30.43,NE,45,0.0,0.0,69,0.00,,CLR,0.00,VWS V14.01,2013-05-01 04:24:00,
2013-04-30 21:29:00,44.6,35.4,30.43,NE,45,0.0,0.0,70,0.00,,CLR,0.00,VWS V14.01,2013-05-01 04:29:00,
2013-04-30 21:34:00,44.4,35.2,30.43,NE,45,0.0,0.0,70,0.00,,CLR,0.00,VWS V14.01,2013-05-01 04:34:00,
2013-04-30 21:39:00,44.4,35.2,30.43,NE,45,0.0,0.0,70,0.00,,CLR,0.00,VWS V14.01,2013-05-01 04:39:00,
2013-04-30 21:44:00,44.4,35.2,30.44,NE,45,0.0,0.0,70,0.00,,CLR,0.00,VWS V14.01,2013-05-01 04:44:00,
2013-04-30 21:50:00,44.2,35.0,30.44,NE,45,0.0,0.0,70,0.00,,CLR,0.00,VWS V14.01,2013-05-01 04:50:00,
2013-04-30 21:55:00,44.2,35.4,30.44,NE,45,0.0,0.0,71,0.00,,CLR,0.00,VWS V14.01,2013-05-01 04:55:00,
2013-04-30 22:00:00,44.0,35.2,30.44,NE,45,0.0,0.0,71,0.00,,CLR,0.00,VWS V14.01,2013-05-01 05:00:00,
2013-04-30 22:05:00,44.0,35.2,30.44,NE,45,0.0,0.0,71,0.00,,OVC065,0.00,VWS V14.01,2013-05-01 05:05:00,
2013-04-30 22:10:00,43.8,35.4,30.44,NE,45,0.0,0.0,72,0.00,,OVC065,0.00,VWS V14.01,2013-05-01 05:10:00,
2013-04-30 22:15:00,43.7,35.3,30.44,NE,45,0.0,0.0,72,0.00,,OVC065,0.00,VWS V14.01,2013-05-01 05:15:00,
2013-04-30 22:20:00,43.5,35.1,30.44,NE,45,0.0,0.0,72,0.00,,OVC065,0.00,VWS V14.01,2013-05-01 05:20:00,
2013-04-30 22:25:00,43.3,34.9,30.44,NE,45,0.0,0.0,72,0.00,,OVC065,0.00,VWS V14.01,2013-05-01 05:25:00,
2013-04-30 22:30:00,43.1,35.0,30.45,NE,45,0.0,0.0,73,0.00,,OVC065,0.00,VWS V14.01,2013-05-01 05:30:00,
2013-04-30 22:35:00,42.6,34.9,30.45,NE,45,0.0,0.0,74,0.00,,OVC065,0.00,VWS V14.01,2013-05-01 05:35:00,
2013-04-30 22:40:00,42.6,34.9,30.45,NE,45,0.0,0.0,74,0.00,,OVC065,0.00,VWS V14.01,2013-05-01 05:40:00,
2013-04-30 22:45:00,42.2,34.5,30.45,NE,45,0.0,0.0,74,0.00,,OVC065,0.00,VWS V14.01,2013-05-01 05:45:00,
2013-04-30 22:50:00,41.9,34.2,30.45,NE,45,0.0,0.0,74,0.00,,OVC065,0.00,VWS V14.01,2013-05-01 05:50:00,
2013-04-30 22:55:00,41.7,34.4,30.45,NE,45,0.0,0.0,75,0.00,,OVC065,0.00,VWS V14.01,2013-05-01 05:55:00,
2013-04-30 23:00:00,41.5,34.2,30.45,NE,45,0.0,0.0,75,0.00,,OVC065,0.00,VWS V14.01,2013-05-01 06:00:00,
2013-04-30 23:05:00,41.3,34.0,30.45,NE,45,0.0,0.0,75,0.00,,OVC065,0.00,VWS V14.01,2013-05-01 06:05:00,
2013-04-30 23:10:00,41.1,34.1,30.45,NE,45,0.0,0.0,76,0.00,,OVC065,0.00,VWS V14.01,2013-05-01 06:10:00,
2013-04-30 23:15:00,40.8,33.8,30.45,NE,45,0.0,0.0,76,0.00,,OVC065,0.00,VWS V14.01,2013-05-01 06:15:00,
2013-04-30 23:20:00,40.6,33.6,30.45,NE,45,0.0,0.0,76,0.00,,OVC065,0.00,VWS V14.01,2013-05-01 06:20:00,
2013-04-30 23:25:00,40.4,33.5,30.46,NE,45,0.0,0.0,76,0.00,,OVC065,0.00,VWS V14.01,2013-05-01 06:25:00,
2013-04-30 23:30:00,40.2,33.2,30.45,NE,45,0.0,0.0,76,0.00,,OVC065,0.00,VWS V14.01,2013-05-01 06:30:00,
2013-04-30 23:35:00,39.9,33.3,30.46,NE,45,0.0,0.0,77,0.00,,OVC065,0.00,VWS V14.01,2013-05-01 06:35:00,
2013-04-30 23:40:00,39.7,33.1,30.46,NE,45,0.0,0.0,77,0.00,,OVC065,0.00,VWS V14.01,2013-05-01 06:40:00,
2013-04-30 23:45:00,39.5,32.9,30.46,NE,45,0.0,0.0,77,0.00,,OVC065,0.00,VWS V14.01,2013-05-01 06:45:00,
2013-04-30 23:50:00,39.3,32.7,30.46,NE,45,0.0,0.0,77,0.00,,OVC065,0.00,VWS V14.01,2013-05-01 06:50:00,
2013-04-30 23:55:00,39.3,32.7,30.46,NE,45,0.0,0.0,77,0.00,,OVC065,0.00,VWS V14.01,2013-05-01 06:55:00,